createdAt,value
2022-08-29T00:02:06.877Z,19.27
2022-08-29T00:04:37.463Z,19.29
2022-08-29T00:07:07.123Z,19.42
2022-08-29T00:09:35.079Z,19.32
2022-08-29T00:12:03.443Z,18.88
2022-08-29T00:14:31.740Z,19.05
2022-08-29T00:17:01.121Z,19.24
2022-08-29T00:19:29.583Z,18.92
2022-08-29T00:21:58.937Z,18.92
2022-08-29T00:24:27.381Z,19.04
2022-08-29T00:26:55.362Z,18.78
2022-08-29T00:29:23.553Z,18.84
2022-08-29T00:31:51.360Z,18.90
2022-08-29T00:34:19.843Z,18.97
2022-08-29T00:36:49.021Z,18.76
2022-08-29T00:39:18.969Z,18.74
2022-08-29T00:41:51.199Z,19.00
2022-08-29T00:44:19.132Z,18.96
2022-08-29T00:46:55.271Z,18.68
2022-08-29T00:49:33.325Z,18.54
2022-08-29T00:52:07.305Z,18.55
2022-08-29T00:54:37.617Z,18.35
2022-08-29T00:57:06.539Z,18.09
2022-08-29T00:59:37.569Z,18.14
2022-08-29T01:02:06.235Z,18.50
2022-08-29T01:04:35.062Z,18.47
2022-08-29T01:07:03.680Z,18.69
2022-08-29T01:09:33.094Z,18.55
2022-08-29T01:12:17.311Z,18.56
2022-08-29T01:14:49.853Z,18.36
2022-08-29T01:17:22.480Z,18.29
2022-08-29T01:19:55.918Z,18.17
2022-08-29T01:22:37.707Z,18.29
2022-08-29T01:25:10.261Z,18.47
2022-08-29T01:27:41.250Z,18.13
2022-08-29T01:30:10.740Z,18.16
2022-08-29T01:32:38.756Z,18.12
2022-08-29T01:35:08.570Z,18.02
2022-08-29T01:37:39.633Z,18.01
2022-08-29T01:40:10.470Z,17.84
2022-08-29T01:42:38.386Z,17.93
2022-08-29T01:45:10.054Z,17.86
2022-08-29T01:47:39.954Z,17.97
2022-08-29T01:50:11.187Z,17.99
2022-08-29T01:52:39.513Z,18.08
2022-08-29T01:55:09.628Z,17.98
2022-08-29T01:57:38.831Z,18.00
2022-08-29T02:00:10.411Z,17.77
2022-08-29T02:02:41.199Z,17.90
2022-08-29T02:05:10.820Z,17.98
2022-08-29T02:07:39.813Z,17.97
2022-08-29T02:10:09.984Z,17.89
2022-08-29T02:12:37.877Z,17.92
2022-08-29T02:15:07.407Z,17.67
2022-08-29T02:17:35.618Z,17.53
2022-08-29T02:20:06.608Z,17.34
2022-08-29T02:22:36.217Z,17.53
2022-08-29T02:25:25.970Z,17.38
2022-08-29T02:27:56.273Z,17.40
2022-08-29T02:30:25.551Z,17.43
2022-08-29T02:32:55.036Z,17.33
2022-08-29T02:35:24.185Z,17.31
2022-08-29T02:37:52.409Z,17.27
2022-08-29T02:40:24.677Z,17.42
2022-08-29T02:43:01.797Z,17.41
2022-08-29T02:45:30.851Z,17.41
2022-08-29T02:47:59.692Z,17.30
2022-08-29T02:50:27.649Z,17.24
2022-08-29T02:52:55.647Z,17.41
2022-08-29T02:55:25.871Z,17.02
2022-08-29T02:57:54.502Z,17.09
2022-08-29T03:00:27.657Z,17.19
2022-08-29T03:02:57.002Z,17.06
2022-08-29T03:05:27.484Z,17.11
2022-08-29T03:07:55.902Z,17.27
2022-08-29T03:10:23.994Z,17.13
2022-08-29T03:12:52.505Z,17.20
2022-08-29T03:15:20.597Z,17.11
2022-08-29T03:17:50.401Z,17.06
2022-08-29T03:20:21.595Z,16.93
2022-08-29T03:22:49.918Z,17.05
2022-08-29T03:25:18.644Z,17.06
2022-08-29T03:27:46.587Z,17.05
2022-08-29T03:30:16.969Z,16.88
2022-08-29T03:32:45.320Z,16.64
2022-08-29T03:35:15.446Z,16.73
2022-08-29T03:37:43.674Z,16.79
2022-08-29T03:40:13.144Z,17.15
2022-08-29T03:42:42.795Z,16.96
2022-08-29T03:45:13.982Z,17.19
2022-08-29T03:47:42.001Z,17.08
2022-08-29T03:50:11.223Z,17.11
2022-08-29T03:52:40.701Z,16.91
2022-08-29T03:55:09.372Z,16.90
2022-08-29T03:57:37.694Z,16.93
2022-08-29T04:00:11.909Z,16.81
2022-08-29T04:02:40.380Z,16.91
2022-08-29T04:05:09.763Z,16.81
2022-08-29T04:07:51.570Z,16.85
2022-08-29T04:10:21.975Z,17.05
2022-08-29T04:12:54.274Z,16.94
2022-08-29T04:15:23.528Z,17.09
2022-08-29T04:17:54.186Z,16.90
2022-08-29T04:20:25.331Z,16.87
2022-08-29T04:22:56.101Z,16.88
2022-08-29T04:25:25.808Z,16.62
2022-08-29T04:27:53.797Z,16.73
2022-08-29T04:30:24.718Z,16.68
2022-08-29T04:32:52.831Z,17.00
2022-08-29T04:35:21.340Z,16.89
2022-08-29T04:37:49.663Z,16.86
2022-08-29T04:40:21.103Z,16.77
2022-08-29T04:42:49.378Z,16.59
2022-08-29T04:45:20.178Z,16.56
2022-08-29T04:47:48.031Z,16.54
2022-08-29T04:50:19.189Z,17.18
2022-08-29T04:52:47.665Z,16.63
2022-08-29T04:55:21.677Z,16.71
2022-08-29T04:57:56.312Z,16.51
2022-08-29T05:00:30.227Z,16.56
2022-08-29T05:02:59.446Z,16.63
2022-08-29T05:05:28.021Z,16.84
2022-08-29T05:07:56.031Z,16.72
2022-08-29T05:10:26.317Z,16.87
2022-08-29T05:12:56.042Z,16.85
2022-08-29T05:15:24.033Z,16.96
2022-08-29T05:17:53.209Z,17.02
2022-08-29T05:20:22.360Z,16.96
2022-08-29T05:22:50.474Z,17.05
2022-08-29T05:25:18.835Z,16.71
2022-08-29T05:27:48.588Z,16.85
2022-08-29T05:30:34.037Z,16.66
2022-08-29T05:33:02.842Z,16.75
2022-08-29T05:35:31.222Z,16.75
2022-08-29T05:37:59.291Z,17.08
2022-08-29T05:40:27.344Z,17.06
2022-08-29T05:42:57.063Z,16.76
2022-08-29T05:45:25.042Z,16.98
2022-08-29T05:47:53.463Z,17.26
2022-08-29T05:50:21.322Z,17.44
2022-08-29T05:52:49.370Z,17.45
2022-08-29T05:55:17.368Z,17.35
2022-08-29T05:57:45.319Z,17.15
2022-08-29T06:00:16.892Z,16.84
2022-08-29T06:02:45.081Z,16.94
2022-08-29T06:05:16.057Z,17.25
2022-08-29T06:07:44.184Z,17.16
2022-08-29T06:10:12.214Z,17.45
2022-08-29T06:12:40.281Z,17.38
2022-08-29T06:15:09.410Z,17.37
2022-08-29T06:17:39.087Z,17.53
2022-08-29T06:20:09.783Z,17.43
2022-08-29T06:22:40.406Z,17.50
2022-08-29T06:25:35.046Z,17.20
2022-08-29T06:27:58.736Z,17.41
2022-08-29T06:30:27.004Z,17.67
2022-08-29T06:32:56.408Z,17.48
2022-08-29T06:35:24.360Z,17.70
2022-08-29T06:37:53.169Z,17.50
2022-08-29T06:40:21.280Z,17.47
2022-08-29T06:42:49.246Z,17.92
2022-08-29T06:45:17.358Z,17.82
2022-08-29T06:47:48.537Z,18.23
2022-08-29T06:50:18.544Z,18.19
2022-08-29T06:52:47.096Z,18.02
2022-08-29T06:55:15.724Z,17.80
2022-08-29T06:57:46.052Z,17.90
2022-08-29T07:00:22.602Z,18.19
2022-08-29T07:02:52.898Z,18.17
2022-08-29T07:05:23.360Z,18.49
2022-08-29T07:07:52.527Z,18.25
2022-08-29T07:10:22.722Z,18.20
2022-08-29T07:12:51.592Z,18.20
2022-08-29T07:15:20.219Z,18.38
2022-08-29T07:17:48.654Z,18.55
2022-08-29T07:20:17.937Z,18.60
2022-08-29T07:22:51.444Z,18.85
2022-08-29T07:25:21.306Z,19.17
2022-08-29T07:27:51.974Z,19.61
2022-08-29T07:30:20.781Z,19.58
2022-08-29T07:32:52.396Z,19.87
2022-08-29T07:35:30.125Z,19.98
2022-08-29T07:38:02.888Z,20.06
2022-08-29T07:40:31.587Z,19.56
2022-08-29T07:43:00.323Z,19.90
2022-08-29T07:45:28.293Z,20.17
2022-08-29T07:47:57.345Z,20.07
2022-08-29T07:50:25.881Z,19.82
2022-08-29T07:52:53.916Z,20.05
2022-08-29T07:55:24.224Z,20.15
2022-08-29T07:57:52.874Z,20.32
2022-08-29T08:00:21.886Z,20.38
2022-08-29T08:02:50.451Z,20.43
2022-08-29T08:05:18.573Z,20.38
2022-08-29T08:07:47.392Z,21.01
2022-08-29T08:10:17.074Z,20.75
2022-08-29T08:12:48.427Z,20.91
2022-08-29T08:15:17.702Z,20.98
2022-08-29T08:17:46.329Z,21.05
2022-08-29T08:20:15.692Z,21.28
2022-08-29T08:22:43.676Z,21.40
2022-08-29T08:25:14.120Z,21.45
2022-08-29T08:27:43.608Z,21.62
2022-08-29T08:30:14.956Z,21.68
2022-08-29T08:32:46.890Z,21.75
2022-08-29T08:35:19.631Z,21.46
2022-08-29T08:37:49.431Z,21.44
2022-08-29T08:40:23.209Z,21.42
2022-08-29T08:43:00.720Z,21.52
2022-08-29T08:45:35.473Z,21.50
2022-08-29T08:48:08.203Z,21.41
2022-08-29T08:50:44.558Z,21.71
2022-08-29T08:53:19.372Z,21.71
2022-08-29T08:55:49.762Z,21.51
2022-08-29T08:58:29.242Z,21.29
2022-08-29T09:01:02.415Z,21.42
2022-08-29T09:03:52.470Z,21.46
2022-08-29T09:06:37.636Z,21.20
2022-08-29T09:09:14.689Z,21.19
2022-08-29T09:11:55.354Z,21.39
2022-08-29T09:14:42.228Z,21.65
2022-08-29T09:17:20.854Z,21.85
2022-08-29T09:19:50.914Z,21.97
2022-08-29T09:22:26.713Z,22.27
2022-08-29T09:25:04.033Z,21.90
2022-08-29T09:27:36.102Z,21.69
2022-08-29T09:30:09.113Z,22.00
2022-08-29T09:32:54.869Z,22.22
2022-08-29T09:35:25.806Z,22.33
2022-08-29T09:38:01.058Z,22.47
2022-08-29T09:40:51.664Z,22.67
2022-08-29T09:43:34.655Z,22.59
2022-08-29T09:46:05.315Z,22.90
2022-08-29T09:48:35.958Z,23.08
2022-08-29T09:51:14.015Z,23.17
2022-08-29T09:53:42.783Z,23.42
2022-08-29T09:56:18.614Z,23.40
2022-08-29T09:58:47.294Z,23.65
2022-08-29T10:01:20.305Z,24.17
2022-08-29T10:03:59.442Z,24.59
2022-08-29T10:06:29.919Z,25.08
2022-08-29T10:09:02.576Z,25.20
2022-08-29T10:11:35.974Z,25.30
2022-08-29T10:14:12.833Z,25.42
2022-08-29T10:16:50.032Z,25.41
2022-08-29T10:19:24.736Z,26.04
2022-08-29T10:22:03.658Z,25.32
2022-08-29T10:24:45.001Z,25.64
2022-08-29T10:27:25.010Z,25.38
2022-08-29T10:30:12.354Z,25.41
2022-08-29T10:33:11.282Z,25.54
2022-08-29T10:35:52.434Z,25.90
2022-08-29T10:38:41.207Z,25.39
2022-08-29T10:41:25.295Z,25.29
2022-08-29T10:44:02.565Z,25.66
2022-08-29T10:46:57.606Z,25.55
2022-08-29T10:49:39.834Z,25.70
2022-08-29T10:52:19.440Z,25.71
2022-08-29T10:54:54.013Z,26.16
2022-08-29T10:57:42.254Z,26.23
2022-08-29T11:00:16.971Z,26.43
2022-08-29T11:02:50.160Z,26.77
2022-08-29T11:05:24.598Z,26.89
2022-08-29T11:08:03.018Z,27.16
2022-08-29T11:10:40.675Z,27.14
2022-08-29T11:13:13.353Z,26.90
2022-08-29T11:15:45.600Z,26.95
2022-08-29T11:18:25.936Z,27.46
2022-08-29T11:20:58.934Z,27.65
2022-08-29T11:23:37.401Z,27.75
2022-08-29T11:26:22.048Z,28.70
2022-08-29T11:28:59.627Z,29.09
2022-08-29T11:31:41.240Z,29.19
2022-08-29T11:34:23.826Z,28.71
2022-08-29T11:37:07.965Z,28.73
2022-08-29T11:39:51.451Z,29.11
2022-08-29T11:45:16.255Z,30.56
2022-08-29T11:48:01.075Z,30.41
2022-08-29T11:50:33.756Z,31.44
2022-08-29T11:53:10.718Z,31.89
2022-08-29T11:55:42.006Z,31.71
2022-08-29T11:58:43.630Z,31.96
2022-08-29T12:01:52.759Z,31.90
2022-08-29T12:04:52.684Z,32.47
2022-08-29T12:07:24.344Z,32.65
2022-08-29T12:09:57.171Z,32.79
2022-08-29T12:12:48.867Z,32.19
2022-08-29T12:15:50.385Z,32.18
2022-08-29T12:18:36.806Z,32.66
2022-08-29T12:21:45.534Z,33.04
2022-08-29T12:24:41.739Z,32.76
2022-08-29T12:27:42.328Z,32.84
2022-08-29T12:30:14.505Z,33.27
2022-08-29T12:32:56.222Z,33.12
2022-08-29T12:35:46.524Z,33.17
2022-08-29T12:38:32.855Z,33.12
2022-08-29T12:41:15.245Z,33.05
2022-08-29T12:43:46.724Z,32.72
2022-08-29T12:46:26.771Z,32.79
2022-08-29T12:49:04.099Z,33.07
2022-08-29T12:51:34.162Z,33.22
2022-08-29T12:54:02.305Z,32.61
2022-08-29T12:56:30.884Z,32.95
2022-08-29T12:59:01.995Z,32.49
2022-08-29T13:01:37.959Z,32.58
2022-08-29T13:04:14.667Z,32.47
2022-08-29T13:06:53.391Z,33.38
2022-08-29T13:09:26.851Z,33.06
2022-08-29T13:12:12.073Z,33.25
2022-08-29T13:14:52.383Z,32.81
2022-08-29T13:17:30.194Z,33.42
2022-08-29T13:20:35.936Z,32.92
2022-08-29T13:23:19.408Z,32.73
2022-08-29T13:25:51.949Z,32.94
2022-08-29T13:28:32.361Z,32.52
2022-08-29T13:31:34.738Z,32.40
2022-08-29T13:34:26.533Z,32.53
2022-08-29T13:37:01.331Z,32.59
2022-08-29T13:39:45.892Z,32.91
2022-08-29T13:42:21.170Z,32.56
2022-08-29T13:45:15.185Z,31.90
2022-08-29T13:48:03.864Z,31.74
2022-08-29T13:50:33.479Z,31.56
2022-08-29T13:53:02.207Z,31.90
2022-08-29T13:55:30.754Z,31.95
2022-08-29T13:57:58.611Z,32.10
2022-08-29T14:00:32.400Z,31.47
2022-08-29T14:03:07.026Z,31.48
2022-08-29T14:05:38.139Z,31.96
2022-08-29T14:08:11.935Z,31.72
2022-08-29T14:10:41.839Z,31.84
2022-08-29T14:13:10.433Z,32.06
2022-08-29T14:15:40.954Z,32.01
2022-08-29T14:18:09.319Z,31.79
2022-08-29T14:20:39.012Z,31.58
2022-08-29T14:23:07.381Z,31.39
2022-08-29T14:25:35.590Z,31.20
2022-08-29T14:28:04.043Z,30.55
2022-08-29T14:30:32.750Z,31.11
2022-08-29T14:33:01.706Z,30.85
2022-08-29T14:35:32.992Z,30.90
2022-08-29T14:38:05.952Z,31.23
2022-08-29T14:40:39.371Z,31.18
2022-08-29T14:43:11.818Z,30.75
2022-08-29T14:45:39.741Z,30.75
2022-08-29T14:48:07.723Z,31.04
2022-08-29T14:50:37.082Z,30.95
2022-08-29T14:53:07.242Z,31.00
2022-08-29T14:55:36.273Z,31.10
2022-08-29T14:58:06.024Z,30.69
2022-08-29T15:00:34.956Z,29.85
2022-08-29T15:03:03.558Z,29.16
2022-08-29T15:05:32.777Z,29.50
2022-08-29T15:08:06.019Z,29.30
2022-08-29T15:10:36.018Z,29.09
2022-08-29T15:13:05.398Z,28.96
2022-08-29T15:15:33.441Z,29.07
2022-08-29T15:18:03.255Z,28.76
2022-08-29T15:20:36.316Z,29.04
2022-08-29T15:23:05.806Z,29.00
2022-08-29T15:25:35.558Z,28.76
2022-08-29T15:28:05.548Z,28.60
2022-08-29T15:30:34.357Z,28.65
2022-08-29T15:33:03.012Z,28.92
2022-08-29T15:35:31.801Z,28.79
2022-08-29T15:38:00.093Z,28.55
2022-08-29T15:40:28.903Z,28.43
2022-08-29T15:42:58.330Z,28.07
2022-08-29T15:45:26.410Z,28.17
2022-08-29T15:47:54.627Z,28.09
2022-08-29T15:50:23.519Z,28.08
2022-08-29T15:52:51.518Z,28.02
2022-08-29T15:55:19.718Z,27.82
2022-08-29T15:57:51.794Z,28.02
2022-08-29T16:00:30.788Z,27.71
2022-08-29T16:03:04.286Z,27.58
2022-08-29T16:05:33.531Z,27.57
2022-08-29T16:08:02.547Z,27.73
2022-08-29T16:10:31.569Z,27.37
2022-08-29T16:13:00.156Z,27.26
2022-08-29T16:15:33.776Z,27.24
2022-08-29T16:18:07.018Z,27.62
2022-08-29T16:20:35.624Z,27.64
2022-08-29T16:23:05.090Z,27.37
2022-08-29T16:25:34.440Z,27.19
2022-08-29T16:28:03.440Z,27.36
2022-08-29T16:30:37.963Z,27.04
2022-08-29T16:33:12.661Z,27.07
2022-08-29T16:35:40.538Z,26.88
2022-08-29T16:38:08.581Z,26.77
2022-08-29T16:40:36.826Z,26.78
2022-08-29T16:43:06.610Z,26.53
2022-08-29T16:45:35.922Z,26.77
2022-08-29T16:48:14.781Z,26.86
2022-08-29T16:50:45.023Z,26.61
2022-08-29T16:53:13.427Z,26.39
2022-08-29T16:55:42.132Z,26.37
2022-08-29T16:58:28.467Z,26.62
2022-08-29T17:00:58.530Z,26.61
2022-08-29T17:03:26.916Z,26.90
2022-08-29T17:05:55.080Z,26.58
2022-08-29T17:08:22.591Z,26.29
2022-08-29T17:10:49.442Z,26.37
2022-08-29T17:13:16.613Z,26.19
2022-08-29T17:15:43.383Z,26.32
2022-08-29T17:18:12.838Z,26.40
2022-08-29T17:20:44.008Z,26.36
2022-08-29T17:23:15.715Z,26.03
2022-08-29T17:25:44.463Z,26.00
2022-08-29T17:28:19.966Z,25.94
2022-08-29T17:30:49.119Z,25.90
2022-08-29T17:33:19.814Z,25.76
2022-08-29T17:35:48.645Z,25.55
2022-08-29T17:38:16.983Z,25.51
2022-08-29T17:40:47.687Z,25.58
2022-08-29T17:43:18.350Z,25.70
2022-08-29T17:45:47.392Z,25.47
2022-08-29T17:48:15.512Z,25.37
2022-08-29T17:50:44.906Z,25.34
2022-08-29T17:53:12.895Z,25.13
2022-08-29T17:55:41.381Z,25.11
2022-08-29T17:58:09.740Z,25.17
2022-08-29T18:00:37.729Z,25.23
2022-08-29T18:03:06.281Z,25.15
2022-08-29T18:05:37.904Z,25.17
2022-08-29T18:08:07.805Z,24.86
2022-08-29T18:10:37.223Z,24.65
2022-08-29T18:13:05.857Z,24.74
2022-08-29T18:15:35.420Z,24.70
2022-08-29T18:18:03.982Z,24.53
2022-08-29T18:20:32.418Z,24.43
2022-08-29T18:23:00.415Z,24.44
2022-08-29T18:25:30.222Z,24.51
2022-08-29T18:28:00.092Z,24.42
2022-08-29T18:30:28.998Z,24.30
2022-08-29T18:32:57.143Z,24.35
2022-08-29T18:35:25.378Z,24.39
2022-08-29T18:37:53.417Z,24.28
2022-08-29T18:40:21.422Z,24.24
2022-08-29T18:42:52.559Z,24.15
2022-08-29T18:45:20.807Z,24.03
2022-08-29T18:47:48.867Z,23.96
2022-08-29T18:50:35.513Z,23.85
2022-08-29T18:53:06.960Z,23.77
2022-08-29T18:55:35.307Z,23.71
2022-08-29T18:58:05.871Z,23.60
2022-08-29T19:00:34.576Z,23.65
2022-08-29T19:03:04.198Z,23.52
2022-08-29T19:05:34.328Z,23.49
2022-08-29T19:08:02.925Z,23.41
2022-08-29T19:10:32.021Z,23.28
2022-08-29T19:13:00.669Z,23.25
2022-08-29T19:15:31.621Z,23.22
2022-08-29T19:17:59.665Z,23.11
2022-08-29T19:20:46.591Z,23.00
2022-08-29T19:23:15.100Z,22.97
2022-08-29T19:25:43.803Z,23.04
2022-08-29T19:28:14.441Z,22.94
2022-08-29T19:30:44.860Z,22.82
2022-08-29T19:33:17.820Z,22.79
2022-08-29T19:35:48.976Z,22.79
2022-08-29T19:38:17.977Z,22.57
2022-08-29T19:40:52.179Z,22.55
2022-08-29T19:43:22.258Z,22.46
2022-08-29T19:45:53.330Z,22.28
2022-08-29T19:48:21.459Z,22.32
2022-08-29T19:51:00.617Z,22.20
2022-08-29T19:53:30.771Z,22.21
2022-08-29T19:55:58.696Z,22.01
2022-08-29T19:58:34.163Z,21.85
2022-08-29T20:01:07.140Z,21.78
2022-08-29T20:03:37.745Z,21.75
2022-08-29T20:06:07.587Z,21.81
2022-08-29T20:08:36.750Z,21.87
2022-08-29T20:11:06.658Z,21.81
2022-08-29T20:13:36.279Z,21.62
2022-08-29T20:16:10.562Z,21.62
2022-08-29T20:18:44.033Z,21.56
2022-08-29T20:21:13.092Z,21.42
2022-08-29T20:23:49.717Z,21.36
2022-08-29T20:26:19.310Z,21.48
2022-08-29T20:28:48.729Z,21.54
2022-08-29T20:31:18.860Z,21.57
2022-08-29T20:33:47.433Z,21.64
2022-08-29T20:36:33.281Z,21.64
2022-08-29T20:39:07.575Z,21.59
2022-08-29T20:41:36.090Z,21.72
2022-08-29T20:44:07.470Z,21.95
2022-08-29T20:46:40.671Z,21.92
2022-08-29T20:49:08.971Z,21.72
2022-08-29T20:51:38.299Z,21.72
2022-08-29T20:54:06.772Z,21.95
2022-08-29T20:56:34.993Z,21.74
2022-08-29T20:59:03.072Z,21.63
2022-08-29T21:01:31.288Z,21.59
2022-08-29T21:04:20.943Z,21.64
2022-08-29T21:06:50.126Z,21.50
2022-08-29T21:09:18.233Z,21.33
2022-08-29T21:11:46.267Z,21.42
2022-08-29T21:14:14.161Z,21.31
2022-08-29T21:16:42.202Z,21.29
2022-08-29T21:19:12.680Z,21.33
2022-08-29T21:21:42.541Z,21.16
2022-08-29T21:24:11.027Z,21.12
2022-08-29T21:26:40.012Z,21.28
2022-08-29T21:29:09.353Z,21.09
2022-08-29T21:31:37.801Z,21.08
2022-08-29T21:34:07.268Z,20.99
2022-08-29T21:36:37.527Z,20.73
2022-08-29T21:39:08.055Z,20.51
2022-08-29T21:41:40.683Z,20.46
2022-08-29T21:44:10.142Z,20.49
2022-08-29T21:46:43.404Z,20.60
2022-08-29T21:49:13.719Z,20.76
2022-08-29T21:51:43.537Z,20.63
2022-08-29T21:54:13.837Z,20.70
2022-08-29T21:56:42.812Z,20.80
2022-08-29T21:59:11.700Z,20.67
2022-08-29T22:01:40.994Z,20.65
2022-08-29T22:04:19.215Z,20.61
2022-08-29T22:06:59.858Z,20.54
2022-08-29T22:09:29.908Z,20.49
2022-08-29T22:11:58.807Z,20.47
2022-08-29T22:14:47.681Z,20.42
2022-08-29T22:17:16.226Z,20.04
2022-08-29T22:19:44.162Z,19.91
2022-08-29T22:22:13.429Z,20.10
2022-08-29T22:24:41.449Z,20.24
2022-08-29T22:27:09.602Z,20.46
2022-08-29T22:29:38.180Z,20.44
2022-08-29T22:32:06.538Z,20.49
2022-08-29T22:34:34.826Z,20.36
2022-08-29T22:37:02.806Z,20.38
2022-08-29T22:39:32.566Z,20.17
2022-08-29T22:42:01.091Z,20.16
2022-08-29T22:44:59.574Z,19.88
2022-08-29T22:47:18.390Z,19.71
2022-08-29T22:49:47.696Z,19.65
2022-08-29T22:52:15.857Z,19.60
2022-08-29T22:54:46.062Z,19.55
2022-08-29T22:57:17.304Z,19.78
2022-08-29T22:59:46.732Z,19.93
2022-08-29T23:02:14.782Z,19.88
2022-08-29T23:04:43.698Z,19.77
2022-08-29T23:07:12.982Z,19.84
2022-08-29T23:09:43.076Z,19.82
2022-08-29T23:12:14.434Z,19.82
2022-08-29T23:14:46.541Z,19.58
2022-08-29T23:17:15.515Z,19.35
2022-08-29T23:19:43.445Z,19.16
2022-08-29T23:22:13.086Z,19.05
2022-08-29T23:24:57.776Z,19.33
2022-08-29T23:27:28.985Z,19.39
2022-08-29T23:29:57.550Z,19.62
2022-08-29T23:32:25.543Z,19.44
2022-08-29T23:34:53.784Z,19.23
2022-08-29T23:37:21.782Z,19.33
2022-08-29T23:39:50.858Z,19.36
2022-08-29T23:42:19.210Z,19.43
2022-08-29T23:44:48.785Z,19.43
2022-08-29T23:47:16.926Z,19.37
2022-08-29T23:49:45.405Z,19.43
2022-08-29T23:52:14.112Z,19.40
2022-08-29T23:54:42.154Z,19.42
2022-08-29T23:57:10.096Z,19.44
2022-08-29T23:59:55.356Z,19.41
